Time;durP1;ratioP1;P1;durP2;ratioP2;P2;SDS_P1;SDS_P2;PMS_P1;PMS_P2;Temp;Humidity;BMP_temperature;BMP_pressure;BME280_temperature;BME280_humidity;BME280_pressure;Samples;Min_cycle;Max_cycle;Signal;HPM_P1;HPM_P2
2022/07/10 00:00:10;;;;;;;7.95;7.18;;;;;;;;;;5049266;28;20030;-67
2022/07/10 00:02:41;;;;;;;7.57;6.90;;;;;;;;;;5042884;28;20058;-67
2022/07/10 00:05:08;;;;;;;7.57;6.97;;;;;;;;;;5052273;28;20131;-67
2022/07/10 00:07:34;;;;;;;8.00;7.20;;;;;;;;;;5046466;28;20033;-67
2022/07/10 00:10:00;;;;;;;7.53;6.85;;;;;;;;;;5044604;28;20033;-67
2022/07/10 00:12:26;;;;;;;7.35;6.78;;;;;;;;;;5044952;28;20033;-67
2022/07/10 00:14:52;;;;;;;7.78;7.00;;;;;;;;;;5042014;28;20037;-66
2022/07/10 00:17:17;;;;;;;7.60;7.00;;;;;;;;;;5043402;28;20340;-67
2022/07/10 00:19:43;;;;;;;8.07;6.72;;;;;;;;;;5043800;28;20043;-66
2022/07/10 00:22:09;;;;;;;7.60;7.00;;;;;;;;;;5041783;28;20083;-66
2022/07/10 00:24:35;;;;;;;8.30;7.20;;;;;;;;;;5042584;28;20033;-66
2022/07/10 00:27:00;;;;;;;7.93;7.13;;;;;;;;;;5040427;28;20090;-66
2022/07/10 00:29:40;;;;;;;8.23;7.43;;;;;;;;;;5039282;28;20025;-66
2022/07/10 00:32:06;;;;;;;9.43;7.90;;;;;;;;;;5038426;28;20040;-66
2022/07/10 00:34:32;;;;;;;8.13;7.30;;;;;;;;;;5041975;28;20200;-67
2022/07/10 00:36:57;;;;;;;8.10;7.35;;;;;;;;;;5042842;28;20026;-66
2022/07/10 00:39:23;;;;;;;8.20;7.40;;;;;;;;;;5041771;28;20391;-66
2022/07/10 00:41:49;;;;;;;7.82;7.13;;;;;;;;;;5041228;28;20036;-66
2022/07/10 00:44:14;;;;;;;7.80;7.07;;;;;;;;;;5041682;28;20492;-66
2022/07/10 00:46:40;;;;;;;8.25;7.57;;;;;;;;;;5041245;28;20041;-66
2022/07/10 00:49:06;;;;;;;7.78;7.05;;;;;;;;;;5039998;28;20041;-66
2022/07/10 00:51:33;;;;;;;7.78;7.07;;;;;;;;;;5042110;28;20041;-66
2022/07/10 00:54:00;;;;;;;8.05;7.30;;;;;;;;;;5040935;28;20036;-66
2022/07/10 00:56:27;;;;;;;8.38;7.68;;;;;;;;;;5041535;28;20037;-66
2022/07/10 00:58:53;;;;;;;8.88;8.02;;;;;;;;;;5044903;28;20041;-66
2022/07/10 01:01:19;;;;;;;9.40;7.90;;;;;;;;;;5048017;28;20476;-66
2022/07/10 01:03:46;;;;;;;8.65;7.80;;;;;;;;;;5056721;28;20040;-66
2022/07/10 01:06:13;;;;;;;8.30;7.60;;;;;;;;;;5045915;28;20029;-66
2022/07/10 01:08:39;;;;;;;8.23;7.43;;;;;;;;;;5049742;28;20115;-66
2022/07/10 01:11:05;;;;;;;8.43;7.72;;;;;;;;;;5050461;28;20322;-66
2022/07/10 01:13:31;;;;;;;9.00;8.20;;;;;;;;;;5038386;28;20121;-66
2022/07/10 01:15:57;;;;;;;8.82;8.13;;;;;;;;;;5045910;28;20041;-66
2022/07/10 01:18:24;;;;;;;10.30;7.82;;;;;;;;;;5047657;28;20223;-66
2022/07/10 01:20:51;;;;;;;8.60;7.90;;;;;;;;;;5044753;28;20025;-66
2022/07/10 01:23:17;;;;;;;9.70;7.88;;;;;;;;;;5049072;28;20040;-66
2022/07/10 01:25:42;;;;;;;9.07;8.18;;;;;;;;;;5050240;28;20037;-66
2022/07/10 01:28:08;;;;;;;8.50;7.80;;;;;;;;;;5048731;28;20057;-67
2022/07/10 01:30:33;;;;;;;8.90;8.00;;;;;;;;;;5050105;28;20025;-66
2022/07/10 01:32:59;;;;;;;9.48;8.57;;;;;;;;;;5043630;28;20061;-66
2022/07/10 01:35:25;;;;;;;10.00;8.63;;;;;;;;;;5049594;28;20094;-66
2022/07/10 01:37:50;;;;;;;9.38;8.45;;;;;;;;;;5050472;28;20032;-66
2022/07/10 01:40:16;;;;;;;9.32;8.63;;;;;;;;;;5047300;28;20735;-66
2022/07/10 01:42:41;;;;;;;8.93;8.13;;;;;;;;;;5044058;28;20488;-66
2022/07/10 01:45:08;;;;;;;9.15;8.25;;;;;;;;;;5046148;28;20090;-67
2022/07/10 01:47:34;;;;;;;10.18;8.38;;;;;;;;;;5035094;28;20120;-66
2022/07/10 01:50:00;;;;;;;9.07;8.18;;;;;;;;;;5044100;28;20108;-66
2022/07/10 01:52:25;;;;;;;8.93;8.13;;;;;;;;;;5043592;28;20021;-66
2022/07/10 01:54:51;;;;;;;8.95;8.25;;;;;;;;;;5048650;28;20074;-66
2022/07/10 01:57:17;;;;;;;9.30;8.40;;;;;;;;;;5044762;28;20029;-66
2022/07/10 01:59:43;;;;;;;9.10;8.30;;;;;;;;;;5047192;28;20061;-66
2022/07/10 02:02:09;;;;;;;9.23;8.52;;;;;;;;;;5051324;28;20040;-66
2022/07/10 02:04:43;;;;;;;9.52;8.73;;;;;;;;;;5049647;28;20098;-66
2022/07/10 02:07:14;;;;;;;10.43;8.55;;;;;;;;;;5043642;28;20037;-66
2022/07/10 02:09:41;;;;;;;9.63;8.60;;;;;;;;;;5050769;28;20021;-66
2022/07/10 02:12:10;;;;;;;9.13;8.25;;;;;;;;;;5051077;28;20033;-66
2022/07/10 02:14:37;;;;;;;9.02;8.23;;;;;;;;;;5049516;28;20045;-67
2022/07/10 02:17:04;;;;;;;9.02;8.10;;;;;;;;;;5046715;28;20098;-67
2022/07/10 02:19:29;;;;;;;8.77;7.97;;;;;;;;;;5043818;28;20041;-67
2022/07/10 02:21:55;;;;;;;9.27;8.48;;;;;;;;;;5047115;28;20037;-67
2022/07/10 02:24:21;;;;;;;9.90;8.13;;;;;;;;;;5040451;28;20041;-67
2022/07/10 02:26:47;;;;;;;9.02;8.23;;;;;;;;;;5047359;28;20105;-67
2022/07/10 02:29:13;;;;;;;9.57;8.70;;;;;;;;;;5045510;28;20479;-67
2022/07/10 02:31:41;;;;;;;9.38;8.57;;;;;;;;;;5049097;28;20040;-67
2022/07/10 02:34:11;;;;;;;9.63;8.63;;;;;;;;;;5046616;28;20115;-67
2022/07/10 02:36:40;;;;;;;9.93;9.02;;;;;;;;;;5048068;28;20364;-67
2022/07/10 02:39:06;;;;;;;;;;;;;;;;;;5046218;28;20150;-67
2022/07/10 02:41:32;;;;;;;8.95;8.00;;;;;;;;;;5047202;28;20379;-67
2022/07/10 02:43:58;;;;;;;9.85;8.20;;;;;;;;;;5040749;28;20033;-67
2022/07/10 02:46:24;;;;;;;10.85;7.75;;;;;;;;;;5049394;28;20059;-67
2022/07/10 02:48:50;;;;;;;8.80;7.85;;;;;;;;;;5040069;28;20112;-67
2022/07/10 02:51:16;;;;;;;8.40;7.70;;;;;;;;;;5040111;28;20175;-67
2022/07/10 02:53:42;;;;;;;8.88;7.20;;;;;;;;;;5043668;28;20293;-67
2022/07/10 02:56:07;;;;;;;8.20;7.50;;;;;;;;;;5046116;28;20522;-66
2022/07/10 02:58:34;;;;;;;9.00;8.18;;;;;;;;;;5045587;28;20025;-67
2022/07/10 03:01:00;;;;;;;8.40;7.60;;;;;;;;;;5041132;28;20034;-67
2022/07/10 03:03:25;;;;;;;8.55;7.63;;;;;;;;;;5046594;28;20405;-67
2022/07/10 03:05:51;;;;;;;10.07;8.23;;;;;;;;;;5044771;28;20400;-66
2022/07/10 03:08:17;;;;;;;9.43;8.52;;;;;;;;;;5044496;28;20166;-66
2022/07/10 03:10:43;;;;;;;10.05;9.05;;;;;;;;;;5045244;28;20083;-68
2022/07/10 03:13:09;;;;;;;11.05;10.10;;;;;;;;;;5047845;28;20099;-66
2022/07/10 03:15:34;;;;;;;10.32;9.38;;;;;;;;;;5043788;28;20041;-65
2022/07/10 03:18:00;;;;;;;10.30;9.40;;;;;;;;;;5044665;28;20104;-65
2022/07/10 03:20:26;;;;;;;10.43;9.48;;;;;;;;;;5028897;28;20044;-64
2022/07/10 03:22:51;;;;;;;10.20;9.20;;;;;;;;;;5046429;28;20112;-65
2022/07/10 03:25:17;;;;;;;10.20;9.30;;;;;;;;;;5046380;28;20130;-65
2022/07/10 03:27:43;;;;;;;10.25;9.30;;;;;;;;;;5045052;28;20028;-65
2022/07/10 03:30:09;;;;;;;9.68;8.82;;;;;;;;;;5043325;28;20120;-65
2022/07/10 03:32:34;;;;;;;13.73;10.10;;;;;;;;;;5040320;28;20037;-65
2022/07/10 03:35:00;;;;;;;10.50;9.05;;;;;;;;;;5042823;28;20033;-65
2022/07/10 03:37:25;;;;;;;10.68;9.75;;;;;;;;;;5043209;28;20092;-65
2022/07/10 03:39:51;;;;;;;11.73;9.73;;;;;;;;;;5046235;28;20062;-65
2022/07/10 03:42:17;;;;;;;11.05;9.57;;;;;;;;;;5047901;28;20032;-65
2022/07/10 03:44:43;;;;;;;11.57;9.75;;;;;;;;;;5047923;28;20112;-65
2022/07/10 03:47:09;;;;;;;11.07;9.98;;;;;;;;;;5042441;28;20112;-65
2022/07/10 03:49:34;;;;;;;10.38;9.40;;;;;;;;;;5046926;28;20112;-65
2022/07/10 03:52:01;;;;;;;10.68;9.38;;;;;;;;;;5040298;28;20041;-63
2022/07/10 03:54:27;;;;;;;10.07;9.18;;;;;;;;;;5044939;28;20451;-65
2022/07/10 03:59:37;;;;;;;10.57;9.48;;;;;;;;;;5044411;28;20037;-65
2022/07/10 04:02:02;;;;;;;11.93;9.57;;;;;;;;;;5044394;28;20036;-65
2022/07/10 04:04:28;;;;;;;10.57;9.52;;;;;;;;;;5045493;28;20137;-65
2022/07/10 04:06:54;;;;;;;12.88;9.73;;;;;;;;;;5044174;28;20024;-65
2022/07/10 04:09:19;;;;;;;10.98;9.88;;;;;;;;;;5034823;28;20044;-65
2022/07/10 04:11:45;;;;;;;12.40;9.90;;;;;;;;;;5035587;28;20029;-65
2022/07/10 04:14:10;;;;;;;11.02;9.85;;;;;;;;;;5041754;28;20041;-65
2022/07/10 04:16:36;;;;;;;11.90;10.68;;;;;;;;;;5041928;28;20182;-65
2022/07/10 04:19:02;;;;;;;10.73;9.57;;;;;;;;;;5050362;28;20400;-65
2022/07/10 04:21:27;;;;;;;10.57;9.48;;;;;;;;;;5043689;28;20627;-65
2022/07/10 04:23:53;;;;;;;10.30;9.40;;;;;;;;;;5043477;28;20537;-65
2022/07/10 04:26:19;;;;;;;12.70;9.85;;;;;;;;;;5041514;28;20138;-65
2022/07/10 04:28:45;;;;;;;11.75;10.05;;;;;;;;;;5043386;28;20039;-65
2022/07/10 04:31:10;;;;;;;10.60;9.55;;;;;;;;;;5051305;28;20040;-65
2022/07/10 04:33:36;;;;;;;11.13;9.98;;;;;;;;;;5046655;28;20041;-65
2022/07/10 04:36:02;;;;;;;10.48;9.20;;;;;;;;;;5044232;28;20491;-65
2022/07/10 04:38:27;;;;;;;10.80;9.80;;;;;;;;;;5043309;28;20135;-65
2022/07/10 04:40:53;;;;;;;13.00;10.88;;;;;;;;;;5049914;28;20028;-65
2022/07/10 04:43:18;;;;;;;10.40;9.27;;;;;;;;;;5045010;28;20091;-65
2022/07/10 04:45:45;;;;;;;12.20;10.00;;;;;;;;;;5044815;28;20047;-65
2022/07/10 04:48:10;;;;;;;11.98;10.32;;;;;;;;;;5041980;28;20063;-64
2022/07/10 04:50:36;;;;;;;11.88;9.30;;;;;;;;;;5043412;28;20056;-64
2022/07/10 04:53:01;;;;;;;10.93;9.93;;;;;;;;;;5040735;28;20025;-64
2022/07/10 04:55:27;;;;;;;11.68;10.10;;;;;;;;;;5047459;28;20132;-65
2022/07/10 04:57:53;;;;;;;10.43;9.40;;;;;;;;;;5040023;28;20049;-64
2022/07/10 05:00:18;;;;;;;11.43;9.48;;;;;;;;;;5044602;28;20540;-64
2022/07/10 05:02:44;;;;;;;11.25;9.43;;;;;;;;;;5047257;28;20510;-64
2022/07/10 05:05:09;;;;;;;9.52;8.60;;;;;;;;;;5045156;28;20029;-64
2022/07/10 05:07:35;;;;;;;9.43;8.55;;;;;;;;;;5046039;28;20503;-64
2022/07/10 05:10:01;;;;;;;9.13;8.23;;;;;;;;;;5044576;28;20396;-65
2022/07/10 05:12:26;;;;;;;9.07;8.27;;;;;;;;;;5046318;28;20032;-65
2022/07/10 05:14:52;;;;;;;9.27;8.48;;;;;;;;;;5040504;28;20036;-64
2022/07/10 05:17:18;;;;;;;8.75;7.85;;;;;;;;;;5044953;28;20294;-66
2022/07/10 05:19:43;;;;;;;7.88;7.28;;;;;;;;;;5044497;28;20103;-65
2022/07/10 05:22:09;;;;;;;7.63;7.03;;;;;;;;;;5043440;28;20116;-65
2022/07/10 05:24:36;;;;;;;8.55;7.03;;;;;;;;;;5040500;28;20091;-66
2022/07/10 05:27:02;;;;;;;8.38;7.57;;;;;;;;;;5048558;28;20145;-65
2022/07/10 05:29:28;;;;;;;8.07;7.35;;;;;;;;;;5043595;28;20116;-64
2022/07/10 05:31:53;;;;;;;9.25;7.53;;;;;;;;;;5044869;28;20033;-65
2022/07/10 05:34:19;;;;;;;12.23;7.38;;;;;;;;;;5043511;28;20113;-65
2022/07/10 05:36:44;;;;;;;8.57;7.60;;;;;;;;;;5042377;28;20102;-65
2022/07/10 05:39:10;;;;;;;8.23;7.07;;;;;;;;;;5039217;28;20037;-64
2022/07/10 05:41:36;;;;;;;9.35;7.13;;;;;;;;;;5034240;28;20052;-65
2022/07/10 05:44:02;;;;;;;8.80;7.35;;;;;;;;;;5042288;28;20090;-65
2022/07/10 05:46:28;;;;;;;9.32;7.10;;;;;;;;;;5047661;28;20069;-66
2022/07/10 05:48:54;;;;;;;10.75;7.38;;;;;;;;;;5043248;28;20076;-64
2022/07/10 05:51:19;;;;;;;7.78;7.07;;;;;;;;;;5049004;28;20067;-65
2022/07/10 05:53:45;;;;;;;8.02;7.22;;;;;;;;;;5050481;28;20086;-65
2022/07/10 05:56:10;;;;;;;7.65;6.63;;;;;;;;;;5046422;28;20087;-65
2022/07/10 05:58:36;;;;;;;7.60;6.90;;;;;;;;;;5045210;28;20052;-65
2022/07/10 06:01:01;;;;;;;12.70;7.07;;;;;;;;;;5041520;28;20044;-64
2022/07/10 06:03:28;;;;;;;7.45;6.57;;;;;;;;;;5051158;28;20131;-65
2022/07/10 06:05:54;;;;;;;7.13;6.53;;;;;;;;;;5034969;28;20117;-65
2022/07/10 06:08:19;;;;;;;8.07;5.88;;;;;;;;;;5040616;28;20127;-65
2022/07/10 06:10:45;;;;;;;6.35;5.85;;;;;;;;;;5044956;28;20108;-65
2022/07/10 06:13:11;;;;;;;7.50;6.03;;;;;;;;;;5039268;28;20061;-66
2022/07/10 06:15:37;;;;;;;9.23;5.95;;;;;;;;;;5038955;28;20037;-65
2022/07/10 06:18:03;;;;;;;6.20;5.65;;;;;;;;;;5057627;28;20056;-65
2022/07/10 06:20:30;;;;;;;8.35;6.68;;;;;;;;;;5048010;28;20366;-65
2022/07/10 06:22:57;;;;;;;6.70;6.10;;;;;;;;;;5046067;28;20033;-65
2022/07/10 06:25:22;;;;;;;6.78;6.13;;;;;;;;;;5046111;28;20033;-65
2022/07/10 06:27:48;;;;;;;7.80;6.25;;;;;;;;;;5051292;28;20086;-64
2022/07/10 06:30:14;;;;;;;6.15;5.75;;;;;;;;;;5058487;28;20379;-65
2022/07/10 06:32:40;;;;;;;6.18;5.40;;;;;;;;;;5046788;28;20480;-65
2022/07/10 06:35:07;;;;;;;7.72;5.70;;;;;;;;;;5048008;28;20169;-64
2022/07/10 06:37:33;;;;;;;9.40;5.90;;;;;;;;;;5043492;28;20102;-65
2022/07/10 06:39:58;;;;;;;7.10;5.70;;;;;;;;;;5048710;28;20039;-65
2022/07/10 06:42:24;;;;;;;6.43;5.93;;;;;;;;;;5051701;28;20041;-65
2022/07/10 06:44:51;;;;;;;5.55;5.05;;;;;;;;;;5045244;28;20074;-65
2022/07/10 06:50:08;;;;;;;6.90;5.35;;;;;;;;;;5030062;28;20033;-64
2022/07/10 06:52:34;;;;;;;6.28;5.65;;;;;;;;;;5048706;28;20075;-66
2022/07/10 06:55:01;;;;;;;5.38;5.00;;;;;;;;;;5051103;28;20112;-66
2022/07/10 06:57:27;;;;;;;6.13;5.57;;;;;;;;;;5049112;28;20107;-65
2022/07/10 06:59:52;;;;;;;6.38;5.72;;;;;;;;;;5044007;28;20509;-65
2022/07/10 07:02:18;;;;;;;5.40;4.93;;;;;;;;;;5045946;28;20458;-65
2022/07/10 07:04:45;;;;;;;5.93;5.43;;;;;;;;;;5045658;28;20483;-65
2022/07/10 07:07:14;;;;;;;6.40;5.47;;;;;;;;;;5049689;28;20041;-65
2022/07/10 07:09:40;;;;;;;;;;;;;;;;;;5045013;28;20128;-64
2022/07/10 07:12:06;;;;;;;7.80;5.32;;;;;;;;;;5045050;28;20055;-65
2022/07/10 07:14:32;;;;;;;7.82;5.53;;;;;;;;;;5047825;28;20029;-64
2022/07/10 07:17:05;;;;;;;5.70;5.30;;;;;;;;;;5042377;28;20064;-64
2022/07/10 07:23:09;;;;;;;9.55;5.90;;;;;;;;;;5044901;28;20028;-64
2022/07/10 07:25:05;;;;;;;6.60;5.10;;;;;;;;;;5047481;28;20037;-65
2022/07/10 07:27:32;;;;;;;5.88;5.20;;;;;;;;;;5045401;28;20056;-65
2022/07/10 07:30:02;;;;;;;6.20;5.20;;;;;;;;;;5045471;28;20035;-65
2022/07/10 07:32:28;;;;;;;5.32;4.82;;;;;;;;;;5044819;28;20048;-65
2022/07/10 07:34:54;;;;;;;9.00;5.10;;;;;;;;;;5041198;28;20091;-65
2022/07/10 07:37:19;;;;;;;8.07;5.10;;;;;;;;;;5048124;28;20439;-66
2022/07/10 07:39:45;;;;;;;5.72;5.28;;;;;;;;;;5047094;28;20043;-65
2022/07/10 07:42:10;;;;;;;5.90;5.00;;;;;;;;;;5044078;28;20036;-65
2022/07/10 07:44:36;;;;;;;7.63;4.80;;;;;;;;;;5048308;28;20032;-65
2022/07/10 07:47:02;;;;;;;7.22;5.40;;;;;;;;;;5041274;28;20491;-64
2022/07/10 07:49:27;;;;;;;6.95;5.50;;;;;;;;;;5049143;28;20033;-64
2022/07/10 07:51:53;;;;;;;7.88;5.38;;;;;;;;;;5044293;28;20096;-65
2022/07/10 07:54:18;;;;;;;5.97;5.47;;;;;;;;;;5041212;28;20041;-65
2022/07/10 07:56:44;;;;;;;5.78;5.28;;;;;;;;;;5040241;28;20499;-64
2022/07/10 07:59:10;;;;;;;5.85;5.25;;;;;;;;;;5047763;28;20029;-66
2022/07/10 08:01:36;;;;;;;5.57;5.05;;;;;;;;;;5040580;28;20311;-64
2022/07/10 08:04:02;;;;;;;7.32;5.30;;;;;;;;;;5039687;28;20105;-64
2022/07/10 08:06:27;;;;;;;6.72;5.22;;;;;;;;;;5044673;28;20135;-64
2022/07/10 08:08:53;;;;;;;5.40;5.00;;;;;;;;;;5042181;28;20488;-64
2022/07/10 08:11:18;;;;;;;5.70;5.20;;;;;;;;;;5039876;28;20058;-65
2022/07/10 08:13:44;;;;;;;8.43;5.30;;;;;;;;;;5045338;28;20064;-64
2022/07/10 08:16:10;;;;;;;8.30;5.60;;;;;;;;;;5043613;28;20036;-65
2022/07/10 08:18:35;;;;;;;6.93;4.70;;;;;;;;;;5041199;28;20042;-65
2022/07/10 08:21:01;;;;;;;5.43;4.93;;;;;;;;;;5039367;28;20029;-64
2022/07/10 08:23:27;;;;;;;6.00;5.28;;;;;;;;;;5045021;28;20040;-65
2022/07/10 08:25:52;;;;;;;6.47;5.85;;;;;;;;;;5040844;28;20060;-68
2022/07/10 08:28:18;;;;;;;6.07;5.40;;;;;;;;;;5038025;28;20112;-65
2022/07/10 08:30:43;;;;;;;6.47;4.88;;;;;;;;;;5042215;28;20049;-65
2022/07/10 08:33:09;;;;;;;6.18;5.30;;;;;;;;;;5040435;28;20076;-65
2022/07/10 08:35:34;;;;;;;5.90;5.22;;;;;;;;;;5048276;28;20090;-65
2022/07/10 08:38:01;;;;;;;5.72;5.22;;;;;;;;;;5039574;28;20043;-65
2022/07/10 08:40:35;;;;;;;5.57;5.15;;;;;;;;;;5043186;28;20033;-65
2022/07/10 08:43:01;;;;;;;5.85;5.13;;;;;;;;;;5039127;28;20060;-65
2022/07/10 08:45:30;;;;;;;6.78;5.22;;;;;;;;;;5036731;28;20558;-65
2022/07/10 08:47:58;;;;;;;5.68;5.22;;;;;;;;;;5031147;28;20029;-65
2022/07/10 08:50:25;;;;;;;5.00;4.60;;;;;;;;;;5044688;28;20323;-65
2022/07/10 08:53:09;;;;;;;5.53;5.00;;;;;;;;;;5046442;28;20584;-64
2022/07/10 08:55:36;;;;;;;6.97;5.40;;;;;;;;;;5033494;28;20220;-65
2022/07/10 08:58:04;;;;;;;7.63;5.80;;;;;;;;;;5035090;28;20033;-65
2022/07/10 09:00:30;;;;;;;6.10;5.50;;;;;;;;;;5042661;28;20033;-65
2022/07/10 09:02:56;;;;;;;4.57;4.13;;;;;;;;;;5043074;28;20052;-64
2022/07/10 09:05:23;;;;;;;5.20;4.70;;;;;;;;;;5040970;28;20090;-65
2022/07/10 09:07:49;;;;;;;6.07;5.10;;;;;;;;;;5046138;28;20044;-65
2022/07/10 09:10:14;;;;;;;5.85;5.30;;;;;;;;;;5037733;28;20058;-65
2022/07/10 09:12:56;;;;;;;5.32;4.82;;;;;;;;;;5045151;28;20116;-65
2022/07/10 09:15:25;;;;;;;5.45;4.97;;;;;;;;;;5043559;28;20044;-65
2022/07/10 09:18:07;;;;;;;6.90;5.47;;;;;;;;;;5041118;28;20076;-64
2022/07/10 09:20:34;;;;;;;7.60;5.07;;;;;;;;;;5045049;28;20037;-65
2022/07/10 09:23:15;;;;;;;6.45;5.00;;;;;;;;;;5047194;28;20087;-65
2022/07/10 09:25:41;;;;;;;5.50;5.10;;;;;;;;;;5047229;28;20545;-65
2022/07/10 09:28:07;;;;;;;7.05;4.60;;;;;;;;;;5040162;28;20029;-66
2022/07/10 09:30:34;;;;;;;7.07;4.70;;;;;;;;;;5046410;28;20040;-65
2022/07/10 09:33:30;;;;;;;5.47;4.95;;;;;;;;;;5043393;28;20599;-65
2022/07/10 09:36:11;;;;;;;6.30;4.85;;;;;;;;;;5044153;28;20090;-65
2022/07/10 09:38:43;;;;;;;6.20;5.55;;;;;;;;;;5049083;28;20505;-65
2022/07/10 09:41:12;;;;;;;5.93;5.50;;;;;;;;;;5049784;28;20037;-66
2022/07/10 09:43:50;;;;;;;5.18;4.70;;;;;;;;;;5036043;28;20040;-65
2022/07/10 09:46:17;;;;;;;5.43;4.88;;;;;;;;;;5045739;28;20483;-65
2022/07/10 09:48:43;;;;;;;5.25;4.78;;;;;;;;;;5040440;28;20079;-65
2022/07/10 09:51:10;;;;;;;5.60;4.90;;;;;;;;;;5032943;28;20122;-65
2022/07/10 09:53:41;;;;;;;8.15;4.80;;;;;;;;;;5046713;28;20056;-65
2022/07/10 09:56:09;;;;;;;6.60;5.35;;;;;;;;;;5035093;28;20037;-65
2022/07/10 09:58:36;;;;;;;5.00;4.60;;;;;;;;;;5029863;28;20037;-65
2022/07/10 10:01:06;;;;;;;5.53;5.10;;;;;;;;;;5042592;28;20382;-65
2022/07/10 10:03:34;;;;;;;5.30;4.80;;;;;;;;;;5047030;28;20037;-65
2022/07/10 10:06:03;;;;;;;5.28;4.88;;;;;;;;;;5043966;28;20059;-65
2022/07/10 10:08:37;;;;;;;5.70;5.07;;;;;;;;;;5036288;28;20386;-65
2022/07/10 10:11:06;;;;;;;5.65;5.25;;;;;;;;;;5047093;28;20033;-65
2022/07/10 10:13:34;;;;;;;6.65;5.13;;;;;;;;;;5043701;28;20029;-65
2022/07/10 10:16:01;;;;;;;5.78;5.03;;;;;;;;;;5050098;28;20068;-66
2022/07/10 10:18:29;;;;;;;8.63;5.45;;;;;;;;;;5052202;28;20048;-65
2022/07/10 10:20:55;;;;;;;6.00;4.90;;;;;;;;;;5044685;28;20100;-65
2022/07/10 10:23:24;;;;;;;5.13;4.78;;;;;;;;;;5053270;28;20032;-65
2022/07/10 10:25:55;;;;;;;5.20;4.85;;;;;;;;;;5049511;28;20045;-65
2022/07/10 10:28:23;;;;;;;5.72;4.85;;;;;;;;;;5042654;28;20028;-65
2022/07/10 10:30:57;;;;;;;5.20;4.72;;;;;;;;;;5049298;28;20039;-65
2022/07/10 10:33:42;;;;;;;5.90;5.30;;;;;;;;;;5037638;28;20075;-65
2022/07/10 10:36:12;;;;;;;5.60;5.05;;;;;;;;;;5039820;28;20037;-65
2022/07/10 10:38:51;;;;;;;5.53;5.22;;;;;;;;;;5042378;28;20052;-65
2022/07/10 10:41:36;;;;;;;6.38;5.40;;;;;;;;;;5044998;28;20037;-65
2022/07/10 10:44:08;;;;;;;5.70;5.15;;;;;;;;;;5054510;28;20423;-65
2022/07/10 10:46:56;;;;;;;5.15;4.60;;;;;;;;;;5043512;28;20033;-65
2022/07/10 10:49:27;;;;;;;5.15;4.75;;;;;;;;;;5032798;28;20044;-65
2022/07/10 10:51:56;;;;;;;4.78;4.47;;;;;;;;;;5046446;28;20037;-65
2022/07/10 10:54:22;;;;;;;5.65;4.80;;;;;;;;;;5034189;28;20406;-65
2022/07/10 10:57:17;;;;;;;7.50;5.00;;;;;;;;;;5040783;28;20511;-65
2022/07/10 10:59:50;;;;;;;5.53;4.97;;;;;;;;;;5045362;28;20032;-65
2022/07/10 11:02:25;;;;;;;5.50;5.10;;;;;;;;;;5044501;28;20033;-65
2022/07/10 11:05:18;;;;;;;5.15;4.70;;;;;;;;;;5038608;28;20041;-65
2022/07/10 11:07:59;;;;;;;4.82;4.40;;;;;;;;;;5012718;28;20049;-65
2022/07/10 11:10:42;;;;;;;5.32;4.93;;;;;;;;;;5038745;28;20035;-65
2022/07/10 11:13:13;;;;;;;5.50;4.93;;;;;;;;;;5040902;28;20519;-65
2022/07/10 11:15:44;;;;;;;4.85;4.55;;;;;;;;;;5044074;28;20044;-65
2022/07/10 11:18:21;;;;;;;5.10;4.70;;;;;;;;;;5044062;28;20116;-65
2022/07/10 11:20:49;;;;;;;4.85;4.50;;;;;;;;;;5038453;28;20037;-66
2022/07/10 11:23:47;;;;;;;5.82;4.47;;;;;;;;;;5034790;28;20127;-65
2022/07/10 11:26:21;;;;;;;5.05;4.75;;;;;;;;;;5045129;28;20116;-65
2022/07/10 11:28:55;;;;;;;4.93;4.50;;;;;;;;;;5039721;28;20040;-63
2022/07/10 11:31:26;;;;;;;5.10;4.43;;;;;;;;;;5044293;28;20054;-65
2022/07/10 11:33:55;;;;;;;4.90;4.50;;;;;;;;;;5041296;28;20047;-65
2022/07/10 11:36:25;;;;;;;5.45;5.00;;;;;;;;;;5037181;28;20072;-65
2022/07/10 11:39:03;;;;;;;4.78;4.38;;;;;;;;;;5039596;28;20061;-65
2022/07/10 11:41:28;;;;;;;5.22;4.72;;;;;;;;;;5042378;28;20124;-65
2022/07/10 11:43:58;;;;;;;5.30;4.88;;;;;;;;;;5040923;28;20144;-65
2022/07/10 11:46:26;;;;;;;6.10;5.00;;;;;;;;;;5044953;28;20167;-65
2022/07/10 11:48:58;;;;;;;7.05;4.80;;;;;;;;;;5031946;28;20055;-65
2022/07/10 11:51:27;;;;;;;5.20;4.70;;;;;;;;;;5033634;28;20504;-65
2022/07/10 11:54:00;;;;;;;;;;;;;;;;;;5045839;28;20041;-66
2022/07/10 11:56:28;;;;;;;5.18;4.78;;;;;;;;;;5039986;28;19924;-65
2022/07/10 11:58:55;;;;;;;4.93;4.40;;;;;;;;;;5051881;28;20478;-65
2022/07/10 12:01:21;;;;;;;5.88;4.68;;;;;;;;;;5046083;28;20059;-65
2022/07/10 12:03:56;;;;;;;5.25;4.75;;;;;;;;;;5045691;28;20032;-65
2022/07/10 12:06:23;;;;;;;5.60;5.00;;;;;;;;;;5040972;28;20041;-65
2022/07/10 12:08:48;;;;;;;5.68;5.03;;;;;;;;;;5041302;28;20392;-64
2022/07/10 12:11:19;;;;;;;5.90;5.28;;;;;;;;;;5045502;28;20495;-65
2022/07/10 12:13:46;;;;;;;5.10;4.70;;;;;;;;;;5043128;28;20033;-65
2022/07/10 12:16:13;;;;;;;5.53;4.50;;;;;;;;;;5046603;28;20175;-65
2022/07/10 12:18:41;;;;;;;4.90;4.50;;;;;;;;;;5038813;28;20056;-65
2022/07/10 12:21:08;;;;;;;5.33;4.93;;;;;;;;;;5043444;28;20037;-65
2022/07/10 12:23:38;;;;;;;5.05;4.70;;;;;;;;;;5043546;28;20425;-65
2022/07/10 12:26:04;;;;;;;5.03;4.53;;;;;;;;;;5033599;28;20102;-65
2022/07/10 12:28:30;;;;;;;4.95;4.53;;;;;;;;;;5041081;28;20113;-64
2022/07/10 12:30:55;;;;;;;6.88;4.88;;;;;;;;;;5046962;28;20108;-66
2022/07/10 12:33:23;;;;;;;7.55;5.00;;;;;;;;;;5045273;28;20326;-66
2022/07/10 12:35:56;;;;;;;6.22;4.88;;;;;;;;;;5041179;28;20028;-65
2022/07/10 12:38:33;;;;;;;4.95;4.55;;;;;;;;;;5039002;28;20047;-65
2022/07/10 12:41:11;;;;;;;5.50;5.00;;;;;;;;;;5039877;28;20096;-65
2022/07/10 12:43:37;;;;;;;5.50;4.90;;;;;;;;;;5041710;28;20044;-65
2022/07/10 12:46:15;;;;;;;5.70;5.20;;;;;;;;;;5042891;28;20035;-65
2022/07/10 12:49:00;;;;;;;5.37;4.97;;;;;;;;;;5049403;28;20047;-65
2022/07/10 12:51:28;;;;;;;5.22;4.80;;;;;;;;;;5030478;28;20041;-64
2022/07/10 12:53:54;;;;;;;5.35;4.88;;;;;;;;;;5038739;28;20029;-65
2022/07/10 12:56:30;;;;;;;5.22;4.80;;;;;;;;;;5042948;28;20040;-65
2022/07/10 12:58:57;;;;;;;5.20;4.80;;;;;;;;;;5047119;28;20151;-65
2022/07/10 13:01:23;;;;;;;5.75;5.15;;;;;;;;;;5041132;28;20036;-65
2022/07/10 13:03:56;;;;;;;5.32;4.93;;;;;;;;;;5043092;28;20037;-65
2022/07/10 13:06:29;;;;;;;5.63;5.20;;;;;;;;;;5036515;28;20075;-64
2022/07/10 13:08:55;;;;;;;5.18;4.78;;;;;;;;;;5032198;28;20069;-65
2022/07/10 13:11:21;;;;;;;5.40;5.00;;;;;;;;;;5046937;28;20356;-65
2022/07/10 13:13:48;;;;;;;5.40;4.95;;;;;;;;;;5046712;28;20407;-65
2022/07/10 13:16:13;;;;;;;5.70;5.18;;;;;;;;;;5048334;28;20452;-65
2022/07/10 13:18:42;;;;;;;5.78;5.28;;;;;;;;;;5045283;28;20128;-65
2022/07/10 13:21:07;;;;;;;5.20;4.82;;;;;;;;;;5050798;28;20034;-65
2022/07/10 13:23:33;;;;;;;5.50;4.63;;;;;;;;;;5050259;28;20071;-65
2022/07/10 13:26:00;;;;;;;5.57;5.18;;;;;;;;;;5048040;28;20032;-65
2022/07/10 13:28:26;;;;;;;5.72;4.60;;;;;;;;;;5044855;28;20063;-65
2022/07/10 13:30:52;;;;;;;5.72;4.60;;;;;;;;;;5049559;28;20059;-65
2022/07/10 13:33:18;;;;;;;4.95;4.57;;;;;;;;;;5049742;28;20037;-65
2022/07/10 13:35:44;;;;;;;5.90;5.15;;;;;;;;;;5051954;28;20032;-65
2022/07/10 13:38:09;;;;;;;5.80;5.00;;;;;;;;;;5050243;28;20276;-65
2022/07/10 13:40:36;;;;;;;5.38;4.95;;;;;;;;;;5048027;28;20029;-65
2022/07/10 13:43:03;;;;;;;5.45;4.95;;;;;;;;;;5039904;28;20079;-65
2022/07/10 13:45:33;;;;;;;5.07;4.78;;;;;;;;;;5058644;28;20036;-65
2022/07/10 13:47:59;;;;;;;5.15;4.75;;;;;;;;;;5045724;28;20045;-65
2022/07/10 13:50:25;;;;;;;5.60;5.10;;;;;;;;;;5048011;28;20132;-65
2022/07/10 13:52:51;;;;;;;5.85;5.35;;;;;;;;;;5046516;28;20120;-65
2022/07/10 13:55:17;;;;;;;5.30;4.90;;;;;;;;;;5049809;28;20041;-65
2022/07/10 13:57:43;;;;;;;5.40;5.00;;;;;;;;;;5034938;28;20037;-66
2022/07/10 14:00:09;;;;;;;5.43;4.90;;;;;;;;;;5051141;28;20309;-65
2022/07/10 14:02:38;;;;;;;5.20;4.80;;;;;;;;;;5059650;28;20037;-65
2022/07/10 14:05:04;;;;;;;5.40;5.00;;;;;;;;;;5041235;28;20476;-65
2022/07/10 14:07:30;;;;;;;5.28;4.88;;;;;;;;;;5047106;28;20400;-65
2022/07/10 14:09:58;;;;;;;5.22;4.72;;;;;;;;;;5047634;28;20107;-65
2022/07/10 14:12:23;;;;;;;5.30;4.80;;;;;;;;;;5047629;28;20550;-65
2022/07/10 14:14:49;;;;;;;5.07;4.70;;;;;;;;;;5043517;28;20044;-65
2022/07/10 14:17:15;;;;;;;5.28;4.43;;;;;;;;;;5046529;28;20082;-65
2022/07/10 14:19:41;;;;;;;5.28;4.80;;;;;;;;;;5039137;28;20045;-65
2022/07/10 14:22:07;;;;;;;5.55;5.00;;;;;;;;;;5052727;28;20056;-65
2022/07/10 14:24:33;;;;;;;5.10;4.70;;;;;;;;;;5044779;28;20055;-65
2022/07/10 14:26:58;;;;;;;5.30;4.72;;;;;;;;;;5049974;28;20029;-65
2022/07/10 14:29:24;;;;;;;5.53;4.82;;;;;;;;;;5043335;28;20059;-65
2022/07/10 14:31:50;;;;;;;5.38;4.97;;;;;;;;;;5045293;28;20029;-65
2022/07/10 14:34:19;;;;;;;6.25;4.90;;;;;;;;;;5045149;28;20045;-65
2022/07/10 14:36:45;;;;;;;6.78;4.85;;;;;;;;;;5051007;28;20033;-65
2022/07/10 14:39:11;;;;;;;4.82;4.53;;;;;;;;;;5040014;28;21058;-65
2022/07/10 14:41:38;;;;;;;5.95;5.00;;;;;;;;;;5043770;28;20032;-65
2022/07/10 14:44:05;;;;;;;5.13;4.75;;;;;;;;;;5045929;28;20036;-65
2022/07/10 14:46:30;;;;;;;5.13;4.53;;;;;;;;;;5047806;28;20131;-65
2022/07/10 14:48:56;;;;;;;4.82;4.50;;;;;;;;;;5050271;28;20115;-65
2022/07/10 14:51:21;;;;;;;5.05;4.65;;;;;;;;;;5046413;28;20037;-67